Time;durP1;ratioP1;P1;durP2;ratioP2;P2;SDS_P1;SDS_P2;PMS_P1;PMS_P2;Temp;Humidity;BMP_temperature;BMP_pressure;BME280_temperature;BME280_humidity;BME280_pressure;Samples;Min_cycle;Max_cycle;Signal;HPM_P1;HPM_P2
2021/09/02 00:00:55;;;;;;;;;;;14.90;99.90;;;;;;5118067;28;19934;-83
2021/09/02 00:03:23;;;;;;;;;;;14.80;99.90;;;;;;5117878;28;19924;-84
2021/09/02 00:05:50;;;;;;;;;;;14.80;99.90;;;;;;5117882;28;19923;-83
2021/09/02 00:08:16;;;;;;;;;;;14.80;99.90;;;;;;5118009;28;19924;-82
2021/09/02 00:10:43;;;;;;;;;;;14.80;99.90;;;;;;5119540;28;19940;-83
2021/09/02 00:13:10;;;;;;;;;;;14.80;99.90;;;;;;5118396;28;19927;-82
2021/09/02 00:15:37;;;;;;;;;;;14.80;99.90;;;;;;5118777;28;19924;-84
2021/09/02 00:18:04;;;;;;;;;;;14.80;99.90;;;;;;5117635;28;19934;-84
2021/09/02 00:20:32;;;;;;;;;;;14.70;99.90;;;;;;5117689;28;19935;-84
2021/09/02 00:22:59;;;;;;;;;;;14.70;99.90;;;;;;5117356;28;19930;-84
2021/09/02 00:25:26;;;;;;;;;;;14.70;99.90;;;;;;5116968;28;20001;-84
2021/09/02 00:27:55;;;;;;;;;;;14.80;99.90;;;;;;5117226;28;19923;-84
2021/09/02 00:30:23;;;;;;;;;;;14.80;99.90;;;;;;5116942;28;20359;-83
2021/09/02 00:32:51;;;;;;;;;;;14.80;99.90;;;;;;5117406;28;20256;-84
2021/09/02 00:35:19;;;;;;;;;;;14.80;99.90;;;;;;5117198;28;20336;-83
2021/09/02 00:37:52;;;;;;;;;;;14.80;99.90;;;;;;5117167;28;19924;-84
2021/09/02 00:40:20;;;;;;;;;;;14.80;99.90;;;;;;5117366;28;19934;-83
2021/09/02 00:42:48;;;;;;;;;;;14.80;99.90;;;;;;5117365;28;19924;-83
2021/09/02 00:45:16;;;;;;;;;;;14.70;99.90;;;;;;5116927;28;19924;-83
2021/09/02 00:47:44;;;;;;;;;;;14.70;99.90;;;;;;5117362;28;20358;-83
2021/09/02 00:50:12;;;;;;;;;;;14.70;99.90;;;;;;5117201;28;19924;-84
2021/09/02 00:52:39;;;;;;;;;;;14.80;99.90;;;;;;5116880;28;19924;-84
2021/09/02 00:55:09;;;;;;;;;;;14.80;99.90;;;;;;5116769;28;19930;-83
2021/09/02 00:57:36;;;;;;;;;;;14.80;99.90;;;;;;5115962;28;19935;-83
2021/09/02 01:00:04;;;;;;;;;;;14.80;99.90;;;;;;5116837;28;20347;-83
2021/09/02 01:02:31;;;;;;;;;;;14.70;99.90;;;;;;5116906;28;19928;-83
2021/09/02 01:04:58;;;;;;;;;;;14.70;99.90;;;;;;5116632;28;19923;-83
2021/09/02 01:07:25;;;;;;;;;;;14.70;99.90;;;;;;5116852;28;19924;-83
2021/09/02 01:09:52;;;;;;;;;;;14.70;99.90;;;;;;5116636;28;19973;-84
2021/09/02 01:12:28;;;;;;;;;;;14.70;99.90;;;;;;5116595;28;19938;-84
2021/09/02 01:14:55;;;;;;;;;;;14.70;99.90;;;;;;5116710;28;19924;-83
2021/09/02 01:17:22;;;;;;;;;;;14.70;99.90;;;;;;5116598;28;20336;-83
2021/09/02 01:19:49;;;;;;;;;;;14.70;99.90;;;;;;5116487;28;19931;-83
2021/09/02 01:22:17;;;;;;;;;;;14.70;99.90;;;;;;5116301;28;20347;-83
2021/09/02 01:24:46;;;;;;;;;;;14.70;99.90;;;;;;5115954;28;19935;-82
2021/09/02 01:27:14;;;;;;;;;;;14.70;99.90;;;;;;5116104;28;19924;-82
2021/09/02 01:29:42;;;;;;;;;;;14.70;99.90;;;;;;5116194;28;19943;-82
2021/09/02 01:32:10;;;;;;;;;;;14.70;99.90;;;;;;5115864;28;19924;-82
2021/09/02 01:34:38;;;;;;;;;;;14.70;99.90;;;;;;5116165;28;19934;-82
2021/09/02 01:37:06;;;;;;;;;;;14.70;99.90;;;;;;5115935;28;20340;-82
2021/09/02 01:39:34;;;;;;;;;;;14.70;99.90;;;;;;5116286;28;19931;-82
2021/09/02 01:42:13;;;;;;;;;;;14.70;99.90;;;;;;5115755;28;19935;-82
2021/09/02 01:44:44;;;;;;;;;;;14.70;99.90;;;;;;5115512;28;19924;-83
2021/09/02 01:47:24;;;;;;;;;;;14.80;99.90;;;;;;5115840;28;19970;-82
2021/09/02 01:49:52;;;;;;;;;;;14.80;99.90;;;;;;5116004;28;19928;-83
2021/09/02 01:52:21;;;;;;;;;;;14.70;99.90;;;;;;5116059;28;19924;-82
2021/09/02 01:54:49;;;;;;;;;;;14.80;99.90;;;;;;5115287;28;19932;-82
2021/09/02 01:57:22;;;;;;;;;;;14.80;99.90;;;;;;5115198;28;19924;-83
2021/09/02 01:59:50;;;;;;;;;;;14.80;99.90;;;;;;5115279;28;20347;-83
2021/09/02 02:02:19;;;;;;;;;;;14.70;99.90;;;;;;5115394;28;19924;-82
2021/09/02 02:04:45;;;;;;;;;;;14.80;99.90;;;;;;5115110;28;19924;-82
2021/09/02 02:07:12;;;;;;;;;;;14.80;99.90;;;;;;5114925;28;19923;-82
2021/09/02 02:09:40;;;;;;;;;;;14.80;99.90;;;;;;5115123;28;19924;-82
2021/09/02 02:12:11;;;;;;;;;;;14.80;99.90;;;;;;5115333;28;19924;-83
2021/09/02 02:14:43;;;;;;;;;;;14.70;99.90;;;;;;5112957;28;19931;-82
2021/09/02 02:17:12;;;;;;;;;;;14.80;99.90;;;;;;5115125;28;19932;-82
2021/09/02 02:19:42;;;;;;;;;;;14.80;99.90;;;;;;5112931;28;19954;-82
2021/09/02 02:22:10;;;;;;;;;;;14.70;99.90;;;;;;5115649;28;20026;-83
2021/09/02 02:24:38;;;;;;;;;;;14.70;99.90;;;;;;5114796;28;20252;-83
2021/09/02 02:27:08;;;;;;;;;;;14.70;99.90;;;;;;5115369;28;19924;-82
2021/09/02 02:29:36;;;;;;;;;;;14.70;99.90;;;;;;5115409;28;19993;-83
2021/09/02 02:32:18;;;;;;;;;;;14.70;99.90;;;;;;5115037;28;19923;-82
2021/09/02 02:34:46;;;;;;;;;;;14.70;99.90;;;;;;5115642;28;19928;-84
2021/09/02 02:37:14;;;;;;;;;;;14.70;99.90;;;;;;5115316;28;19923;-82
2021/09/02 02:39:42;;;;;;;;;;;14.70;99.90;;;;;;5115363;28;20373;-82
2021/09/02 02:42:11;;;;;;;;;;;14.70;99.90;;;;;;5115419;28;20240;-84
2021/09/02 02:44:39;;;;;;;;;;;14.70;99.90;;;;;;5115175;28;19924;-79
2021/09/02 02:47:09;;;;;;;;;;;14.70;99.90;;;;;;5115284;28;20347;-85
2021/09/02 02:49:36;;;;;;;;;;;14.60;99.90;;;;;;5116981;28;20278;-82
2021/09/02 02:52:02;;;;;;;;;;;14.60;99.90;;;;;;5119415;28;19923;-82
2021/09/02 02:54:29;;;;;;;;;;;14.60;99.90;;;;;;5119214;28;19924;-83
2021/09/02 02:56:56;;;;;;;;;;;14.60;99.90;;;;;;5119184;28;19924;-85
2021/09/02 02:59:23;;;;;;;;;;;14.60;99.90;;;;;;5119149;28;19930;-84
2021/09/02 03:01:50;;;;;;;;;;;14.60;99.90;;;;;;5119355;28;20268;-85
2021/09/02 03:04:18;;;;;;;;;;;14.60;99.90;;;;;;5118907;28;19934;-85
2021/09/02 03:06:45;;;;;;;;;;;14.70;99.90;;;;;;5119062;28;19947;-85
2021/09/02 03:09:13;;;;;;;;;;;14.70;99.90;;;;;;5118803;28;20374;-85
2021/09/02 03:11:41;;;;;;;;;;;14.60;99.90;;;;;;5118846;28;19924;-85
2021/09/02 03:14:09;;;;;;;;;;;14.70;99.90;;;;;;5118988;28;19923;-84
2021/09/02 03:16:37;;;;;;;;;;;14.70;99.90;;;;;;5118614;28;19934;-84
2021/09/02 03:19:04;;;;;;;;;;;14.70;99.90;;;;;;5118734;28;19936;-85
2021/09/02 03:21:34;;;;;;;;;;;14.70;99.90;;;;;;5118535;28;20270;-85
2021/09/02 03:24:01;;;;;;;;;;;14.60;99.90;;;;;;5118180;28;19924;-84
2021/09/02 03:26:28;;;;;;;;;;;14.60;99.90;;;;;;5118647;28;20267;-85
2021/09/02 03:28:55;;;;;;;;;;;14.60;99.90;;;;;;5118507;28;20252;-84
2021/09/02 03:31:23;;;;;;;;;;;14.60;99.90;;;;;;5117988;28;19928;-85
2021/09/02 03:33:51;;;;;;;;;;;14.60;99.90;;;;;;5118617;28;19923;-85
2021/09/02 03:36:21;;;;;;;;;;;14.60;99.90;;;;;;5118355;28;19928;-84
2021/09/02 03:38:49;;;;;;;;;;;14.60;99.90;;;;;;5118141;28;19977;-84
2021/09/02 03:41:16;;;;;;;;;;;14.60;99.90;;;;;;5118276;28;19930;-85
2021/09/02 03:43:43;;;;;;;;;;;14.60;99.90;;;;;;5118511;28;19935;-85
2021/09/02 03:46:10;;;;;;;;;;;14.50;99.90;;;;;;5118324;28;19942;-85
2021/09/02 03:48:38;;;;;;;;;;;14.60;99.90;;;;;;5123746;27;19934;-84
2021/09/02 03:51:06;;;;;;;;;;;14.50;99.90;;;;;;5138521;27;19933;-85
2021/09/02 03:53:34;;;;;;;;;;;14.60;99.90;;;;;;5138646;27;19924;-85
2021/09/02 03:56:02;;;;;;;;;;;14.60;99.90;;;;;;5138811;27;19962;-84
2021/09/02 03:58:29;;;;;;;;;;;14.60;99.90;;;;;;5138736;27;19934;-83
2021/09/02 04:01:00;;;;;;;;;;;14.60;99.90;;;;;;5138337;27;19923;-84
2021/09/02 04:03:27;;;;;;;;;;;14.60;99.90;;;;;;5138470;27;20039;-84
2021/09/02 04:05:56;;;;;;;;;;;14.60;99.90;;;;;;5138260;27;19977;-84
2021/09/02 04:08:24;;;;;;;;;;;14.60;99.90;;;;;;5138320;27;19933;-85
2021/09/02 04:10:52;;;;;;;;;;;14.60;99.90;;;;;;5138305;27;19924;-85
2021/09/02 04:13:22;;;;;;;;;;;14.60;99.90;;;;;;5138517;27;19945;-85
2021/09/02 04:15:49;;;;;;;;;;;14.60;99.90;;;;;;5138230;27;19934;-83
2021/09/02 04:18:18;;;;;;;;;;;14.60;99.90;;;;;;5138249;27;19923;-85
2021/09/02 04:20:44;;;;;;;;;;;14.60;99.90;;;;;;5138120;27;19927;-85
2021/09/02 04:23:13;;;;;;;;;;;14.60;99.90;;;;;;5138032;27;19927;-83
2021/09/02 04:25:41;;;;;;;;;;;14.60;99.90;;;;;;5138014;27;19931;-85
2021/09/02 04:28:09;;;;;;;;;;;14.60;99.90;;;;;;5137979;27;19923;-84
2021/09/02 04:30:38;;;;;;;;;;;14.50;99.90;;;;;;5138005;27;19934;-85
2021/09/02 04:33:07;;;;;;;;;;;14.50;99.90;;;;;;5137690;27;19934;-84
2021/09/02 04:35:35;;;;;;;;;;;14.50;99.90;;;;;;5137737;27;19924;-84
2021/09/02 04:38:03;;;;;;;;;;;14.50;99.90;;;;;;5137729;27;20366;-85
2021/09/02 04:40:32;;;;;;;;;;;14.50;99.90;;;;;;5138038;27;19924;-85
2021/09/02 04:42:59;;;;;;;;;;;14.50;99.90;;;;;;5137781;27;19933;-85
2021/09/02 04:45:29;;;;;;;;;;;14.50;99.90;;;;;;5137625;27;20266;-84
2021/09/02 04:48:04;;;;;;;;;;;14.50;99.90;;;;;;5137521;27;19924;-84
2021/09/02 04:50:32;;;;;;;;;;;14.50;99.90;;;;;;5137734;27;19927;-85
2021/09/02 04:53:00;;;;;;;;;;;14.50;99.90;;;;;;5137618;27;19935;-84
2021/09/02 04:55:28;;;;;;;;;;;14.50;99.90;;;;;;5137430;27;19923;-85
2021/09/02 04:57:56;;;;;;;;;;;14.50;99.90;;;;;;5137400;27;19943;-84
2021/09/02 05:00:23;;;;;;;;;;;14.50;99.90;;;;;;5134768;27;19923;-85
2021/09/02 05:02:50;;;;;;;;;;;14.50;99.90;;;;;;5135862;27;19923;-85
2021/09/02 05:05:22;;;;;;;;;;;14.40;99.90;;;;;;5136877;27;20284;-85
2021/09/02 05:07:52;;;;;;;;;;;14.50;99.90;;;;;;5136409;27;19924;-85
2021/09/02 05:10:19;;;;;;;;;;;14.50;99.90;;;;;;5136675;27;19931;-84
2021/09/02 05:12:47;;;;;;;;;;;14.50;99.90;;;;;;5120702;27;19924;-85
2021/09/02 05:15:17;;;;;;;;;;;14.40;99.90;;;;;;5136840;27;19928;-85
2021/09/02 05:17:45;;;;;;;;;;;14.50;99.90;;;;;;5136988;27;20041;-85
2021/09/02 05:20:14;;;;;;;;;;;14.50;99.90;;;;;;5136932;27;19927;-85
2021/09/02 05:22:42;;;;;;;;;;;14.50;99.90;;;;;;5137033;27;20255;-85
2021/09/02 05:25:11;;;;;;;;;;;14.50;99.90;;;;;;5136724;27;19933;-85
2021/09/02 05:27:38;;;;;;;;;;;14.40;99.90;;;;;;5136709;27;20026;-85
2021/09/02 05:30:05;;;;;;;;;;;14.40;99.90;;;;;;5136971;27;20255;-85
2021/09/02 05:32:33;;;;;;;;;;;14.40;99.90;;;;;;5136895;27;20120;-85
2021/09/02 05:35:02;;;;;;;;;;;14.40;99.90;;;;;;5136851;27;20019;-84
2021/09/02 05:37:30;;;;;;;;;;;14.40;99.90;;;;;;5136788;27;20259;-85
2021/09/02 05:40:00;;;;;;;;;;;14.40;99.90;;;;;;5136573;27;19923;-84
2021/09/02 05:42:28;;;;;;;;;;;14.40;99.90;;;;;;5136917;27;19933;-85
2021/09/02 05:44:56;;;;;;;;;;;14.40;99.90;;;;;;5136389;27;19934;-85
2021/09/02 05:47:24;;;;;;;;;;;14.30;99.90;;;;;;5136584;27;20370;-85
2021/09/02 05:49:52;;;;;;;;;;;14.30;99.90;;;;;;5136330;27;19934;-85
2021/09/02 05:52:20;;;;;;;;;;;14.30;99.90;;;;;;5136346;27;19923;-85
2021/09/02 05:54:53;;;;;;;;;;;14.30;99.90;;;;;;5136307;27;20332;-85
2021/09/02 05:57:21;;;;;;;;;;;14.30;99.90;;;;;;5136482;27;19923;-85
2021/09/02 05:59:48;;;;;;;;;;;14.30;99.90;;;;;;5136149;27;20347;-85
2021/09/02 06:02:15;;;;;;;;;;;14.30;99.90;;;;;;5136269;27;19923;-85
2021/09/02 06:04:42;;;;;;;;;;;14.30;99.90;;;;;;5136200;27;19923;-85
2021/09/02 06:07:09;;;;;;;;;;;14.30;99.90;;;;;;5136118;27;19923;-85
2021/09/02 06:09:35;;;;;;;;;;;14.30;99.90;;;;;;5136345;27;20010;-85
2021/09/02 06:12:02;;;;;;;;;;;14.30;99.90;;;;;;5135889;27;20344;-85
2021/09/02 06:14:31;;;;;;;;;;;14.30;99.90;;;;;;5136290;27;19925;-85
2021/09/02 06:16:57;;;;;;;;;;;14.30;99.90;;;;;;5135195;27;19923;-84
2021/09/02 06:19:24;;;;;;;;;;;14.30;99.90;;;;;;5136103;28;19938;-85
2021/09/02 06:21:51;;;;;;;;;;;14.30;99.90;;;;;;5136060;28;19934;-85
2021/09/02 06:24:18;;;;;;;;;;;14.30;99.90;;;;;;5137411;27;19923;-85
2021/09/02 06:26:45;;;;;;;;;;;14.40;99.90;;;;;;5140223;27;20339;-85
2021/09/02 06:29:11;;;;;;;;;;;14.40;99.90;;;;;;5140280;27;19924;-85
2021/09/02 06:31:41;;;;;;;;;;;14.40;99.90;;;;;;5140233;27;19933;-85
2021/09/02 06:34:08;;;;;;;;;;;14.40;99.90;;;;;;5140164;27;20341;-85
2021/09/02 06:36:34;;;;;;;;;;;14.40;99.90;;;;;;5140252;27;19927;-85
2021/09/02 06:39:01;;;;;;;;;;;14.40;99.90;;;;;;5140115;27;19924;-85
2021/09/02 06:41:28;;;;;;;;;;;14.40;99.90;;;;;;5140342;27;19930;-85
2021/09/02 06:43:55;;;;;;;;;;;14.40;99.90;;;;;;5139943;27;20350;-85
2021/09/02 06:46:22;;;;;;;;;;;14.40;99.90;;;;;;5139901;27;19923;-85
2021/09/02 06:48:50;;;;;;;;;;;14.40;99.90;;;;;;5139780;27;19923;-85
2021/09/02 06:51:17;;;;;;;;;;;14.50;99.90;;;;;;5140003;27;19931;-85
2021/09/02 06:53:44;;;;;;;;;;;14.40;99.90;;;;;;5139793;27;19924;-85
2021/09/02 06:56:10;;;;;;;;;;;14.50;99.90;;;;;;5139875;27;19923;-85
2021/09/02 06:58:37;;;;;;;;;;;14.50;99.90;;;;;;5139818;27;19923;-85
2021/09/02 07:01:04;;;;;;;;;;;14.50;99.90;;;;;;5140161;27;19927;-84
2021/09/02 07:03:31;;;;;;;;;;;14.50;99.90;;;;;;5139571;27;20255;-85
2021/09/02 07:05:59;;;;;;;;;;;14.50;99.90;;;;;;5139412;27;19924;-85
2021/09/02 07:08:26;;;;;;;;;;;14.60;99.90;;;;;;5139823;27;20027;-85
2021/09/02 07:10:53;;;;;;;;;;;14.60;99.90;;;;;;5139681;27;19934;-85
2021/09/02 07:13:20;;;;;;;;;;;14.60;99.90;;;;;;5139652;27;19923;-85
2021/09/02 07:15:46;;;;;;;;;;;14.60;99.90;;;;;;5139478;27;19958;-85
2021/09/02 07:18:13;;;;;;;;;;;14.60;99.90;;;;;;5139338;27;20351;-85
2021/09/02 07:20:40;;;;;;;;;;;14.70;99.90;;;;;;5139515;27;19923;-85
2021/09/02 07:23:08;;;;;;;;;;;14.70;99.90;;;;;;5139549;27;19923;-85
2021/09/02 07:25:35;;;;;;;;;;;14.70;99.90;;;;;;5139284;27;20259;-85
2021/09/02 07:28:02;;;;;;;;;;;14.80;99.90;;;;;;5139131;27;20385;-84
2021/09/02 07:30:29;;;;;;;;;;;14.80;99.90;;;;;;5138975;27;20377;-85
2021/09/02 07:32:56;;;;;;;;;;;14.80;99.90;;;;;;5138992;27;20378;-85
2021/09/02 07:35:22;;;;;;;;;;;14.80;99.90;;;;;;5138596;27;19934;-85
2021/09/02 07:37:49;;;;;;;;;;;14.80;99.90;;;;;;5139001;27;20251;-85
2021/09/02 07:40:17;;;;;;;;;;;14.90;99.90;;;;;;5138982;27;19932;-85
2021/09/02 07:42:44;;;;;;;;;;;14.90;99.90;;;;;;5138945;27;19927;-85
2021/09/02 07:45:11;;;;;;;;;;;14.90;99.90;;;;;;5138849;27;19934;-85
2021/09/02 07:47:38;;;;;;;;;;;14.90;99.90;;;;;;5138781;27;19924;-85
2021/09/02 07:50:06;;;;;;;;;;;15.00;99.90;;;;;;5138529;27;19924;-85
2021/09/02 07:52:34;;;;;;;;;;;15.00;99.90;;;;;;5138910;27;19923;-85
2021/09/02 07:55:01;;;;;;;;;;;15.00;99.90;;;;;;5138720;27;19923;-85
2021/09/02 07:57:29;;;;;;;;;;;15.00;99.90;;;;;;5138758;27;19924;-85
2021/09/02 07:59:56;;;;;;;;;;;15.10;99.90;;;;;;5138704;27;20270;-85
2021/09/02 08:02:23;;;;;;;;;;;15.10;99.90;;;;;;5138510;27;20352;-85
2021/09/02 08:04:51;;;;;;;;;;;15.10;99.90;;;;;;5138385;27;19934;-85
2021/09/02 08:07:19;;;;;;;;;;;15.10;99.90;;;;;;5138402;27;19923;-85
2021/09/02 08:09:47;;;;;;;;;;;15.10;99.90;;;;;;5138450;27;20014;-85
2021/09/02 08:12:14;;;;;;;;;;;15.10;99.90;;;;;;5138393;27;19990;-85
2021/09/02 08:14:43;;;;;;;;;;;15.10;99.90;;;;;;5138265;27;19972;-85
2021/09/02 08:17:10;;;;;;;;;;;15.10;99.90;;;;;;5138187;27;19934;-85
2021/09/02 08:19:37;;;;;;;;;;;15.10;99.90;;;;;;5138257;27;19941;-85
2021/09/02 08:22:04;;;;;;;;;;;15.10;99.90;;;;;;5138286;27;19931;-85
2021/09/02 08:24:31;;;;;;;;;;;15.20;99.90;;;;;;5138023;27;20258;-85
2021/09/02 08:26:59;;;;;;;;;;;15.20;99.90;;;;;;5131588;27;20653;-84
2021/09/02 08:29:27;;;;;;;;;;;15.30;99.90;;;;;;5135607;27;19935;-84
2021/09/02 08:31:56;;;;;;;;;;;15.30;99.90;;;;;;5138136;27;19924;-85
2021/09/02 08:34:24;;;;;;;;;;;15.40;99.90;;;;;;5137689;27;19923;-84
2021/09/02 08:36:54;;;;;;;;;;;15.40;99.90;;;;;;5137947;27;20262;-84
2021/09/02 08:39:21;;;;;;;;;;;15.50;99.90;;;;;;5137737;27;20378;-84
2021/09/02 08:41:48;;;;;;;;;;;15.50;99.90;;;;;;5138121;27;19924;-85
2021/09/02 08:44:17;;;;;;;;;;;15.50;99.90;;;;;;5137664;27;20351;-85
2021/09/02 08:46:45;;;;;;;;;;;15.50;99.90;;;;;;5136878;27;19924;-85
2021/09/02 08:49:15;;;;;;;;;;;15.50;99.90;;;;;;5137277;27;19924;-85
2021/09/02 08:51:43;;;;;;;;;;;15.60;99.90;;;;;;5137620;27;19923;-85
2021/09/02 08:54:10;;;;;;;;;;;15.60;99.90;;;;;;5137413;27;19934;-84
2021/09/02 08:56:37;;;;;;;;;;;15.70;99.90;;;;;;5137161;27;19938;-84
2021/09/02 08:59:04;;;;;;;;;;;15.70;99.90;;;;;;5137538;27;19923;-84
2021/09/02 09:01:30;;;;;;;;;;;15.70;99.90;;;;;;5136578;27;20268;-84
2021/09/02 09:03:58;;;;;;;;;;;15.70;99.90;;;;;;5136977;27;19928;-85
2021/09/02 09:06:29;;;;;;;;;;;15.70;99.90;;;;;;5137065;27;19924;-85
2021/09/02 09:08:57;;;;;;;;;;;15.70;99.90;;;;;;5137115;27;20253;-84
2021/09/02 09:11:28;;;;;;;;;;;15.70;99.90;;;;;;5137323;27;19923;-85
2021/09/02 09:14:06;;;;;;;;;;;15.70;99.90;;;;;;5137356;27;19925;-85
2021/09/02 09:16:44;;;;;;;;;;;15.70;99.90;;;;;;5137011;27;19930;-84
2021/09/02 09:19:12;;;;;;;;;;;15.70;99.90;;;;;;5136993;27;20359;-85
2021/09/02 09:21:40;;;;;;;;;;;15.70;99.90;;;;;;5136293;27;19923;-85
2021/09/02 09:24:07;;;;;;;;;;;15.60;99.90;;;;;;5134267;27;19942;-85
2021/09/02 09:26:34;;;;;;;;;;;15.70;99.90;;;;;;5136486;27;19929;-85
2021/09/02 09:29:01;;;;;;;;;;;15.70;99.90;;;;;;5136331;27;20378;-85
2021/09/02 09:31:30;;;;;;;;;;;15.70;99.90;;;;;;5136697;27;19923;-84
2021/09/02 09:33:58;;;;;;;;;;;15.70;99.90;;;;;;5136810;27;19927;-85
2021/09/02 09:36:28;;;;;;;;;;;15.70;99.90;;;;;;5136604;27;19934;-85
2021/09/02 09:39:00;;;;;;;;;;;15.80;99.90;;;;;;5135921;27;21258;-84
2021/09/02 09:41:35;;;;;;;;;;;15.70;99.90;;;;;;5136767;27;19927;-84
2021/09/02 09:44:16;;;;;;;;;;;15.80;99.90;;;;;;5136630;27;19923;-85
2021/09/02 09:46:43;;;;;;;;;;;15.80;99.90;;;;;;5136323;27;19923;-85
2021/09/02 09:49:10;;;;;;;;;;;15.80;99.90;;;;;;5136168;27;19924;-85
2021/09/02 09:51:36;;;;;;;;;;;15.90;99.90;;;;;;5136252;27;20363;-85
2021/09/02 09:54:07;;;;;;;;;;;15.90;99.90;;;;;;5136255;27;19923;-84
2021/09/02 09:56:35;;;;;;;;;;;16.10;99.90;;;;;;5136316;27;19924;-84
2021/09/02 09:59:04;;;;;;;;;;;16.20;99.90;;;;;;5136219;27;19933;-84
2021/09/02 10:01:33;;;;;;;;;;;16.40;99.90;;;;;;5136220;27;19975;-84
2021/09/02 10:04:00;;;;;;;;;;;16.50;99.90;;;;;;5136417;27;19934;-84
2021/09/02 10:06:28;;;;;;;;;;;16.50;99.90;;;;;;5136237;27;19938;-84
2021/09/02 10:08:54;;;;;;;;;;;16.50;99.90;;;;;;5136137;27;20370;-83
2021/09/02 10:11:23;;;;;;;;;;;16.60;99.90;;;;;;5135995;27;19924;-84
2021/09/02 10:13:50;;;;;;;;;;;16.60;99.90;;;;;;5136032;27;19924;-84
2021/09/02 10:16:27;;;;;;;;;;;16.70;99.90;;;;;;5135859;27;20254;-84
2021/09/02 10:18:55;;;;;;;;;;;16.70;99.90;;;;;;5136497;27;19934;-84
2021/09/02 10:21:23;;;;;;;;;;;16.70;99.90;;;;;;5136127;28;20339;-84
2021/09/02 10:23:51;;;;;;;;;;;16.70;99.90;;;;;;5136029;28;20373;-84
2021/09/02 10:26:34;;;;;;;;;;;16.80;99.90;;;;;;5135904;28;19927;-84
2021/09/02 10:29:02;;;;;;;;;;;16.80;99.90;;;;;;5136025;28;19930;-84
2021/09/02 10:31:29;;;;;;;;;;;16.90;99.90;;;;;;5136129;28;19923;-84
2021/09/02 10:33:57;;;;;;;;;;;17.00;99.90;;;;;;5136110;28;19923;-83
2021/09/02 10:36:43;;;;;;;;;;;17.10;99.90;;;;;;5135888;28;19927;-83
2021/09/02 10:39:12;;;;;;;;;;;17.20;99.90;;;;;;5136139;28;19923;-83
2021/09/02 10:41:48;;;;;;;;;;;17.20;99.90;;;;;;5136243;28;19934;-83
2021/09/02 10:44:17;;;;;;;;;;;17.10;99.90;;;;;;5136124;28;19923;-83
2021/09/02 10:46:45;;;;;;;;;;;17.10;99.90;;;;;;5135703;28;20366;-84
2021/09/02 10:49:17;;;;;;;;;;;17.10;99.90;;;;;;5135649;28;20305;-83
2021/09/02 10:51:45;;;;;;;;;;;17.10;99.90;;;;;;5135861;28;19924;-84
2021/09/02 10:54:15;;;;;;;;;;;17.20;99.90;;;;;;5135967;28;19923;-84
2021/09/02 10:57:04;;;;;;;;;;;17.20;99.90;;;;;;5135882;28;19923;-83
2021/09/02 10:59:50;;;;;;;;;;;17.30;99.90;;;;;;5135866;28;19942;-84
2021/09/02 11:02:37;;;;;;;;;;;17.40;99.90;;;;;;5136007;28;20328;-84
2021/09/02 11:05:04;;;;;;;;;;;17.50;99.90;;;;;;5135815;28;20270;-83
2021/09/02 11:07:42;;;;;;;;;;;17.50;99.90;;;;;;5135640;28;19923;-84
2021/09/02 11:10:11;;;;;;;;;;;17.50;99.90;;;;;;5136439;27;19927;-83
2021/09/02 11:12:43;;;;;;;;;;;17.40;99.90;;;;;;5139433;27;19923;-83
2021/09/02 11:15:11;;;;;;;;;;;17.50;99.90;;;;;;5138795;27;19924;-83
2021/09/02 11:17:39;;;;;;;;;;;17.50;99.90;;;;;;5137963;27;20007;-84
2021/09/02 11:20:18;;;;;;;;;;;17.50;99.90;;;;;;5138626;27;19924;-84
2021/09/02 11:22:45;;;;;;;;;;;17.60;99.90;;;;;;5139288;27;20351;-84
2021/09/02 11:25:13;;;;;;;;;;;17.60;99.90;;;;;;5139235;27;19923;-83
2021/09/02 11:27:42;;;;;;;;;;;17.70;99.90;;;;;;5139130;27;20369;-84
2021/09/02 11:30:19;;;;;;;;;;;17.80;99.90;;;;;;5139067;27;19933;-83
2021/09/02 11:32:51;;;;;;;;;;;17.80;99.90;;;;;;5139310;27;19934;-83
2021/09/02 11:35:20;;;;;;;;;;;17.80;99.90;;;;;;5139081;27;19932;-83
2021/09/02 11:37:48;;;;;;;;;;;17.90;99.90;;;;;;5139016;27;19938;-83
2021/09/02 11:40:32;;;;;;;;;;;17.90;99.90;;;;;;5139211;27;19923;-83
2021/09/02 11:43:01;;;;;;;;;;;17.90;99.90;;;;;;5139040;27;20025;-83
2021/09/02 11:45:30;;;;;;;;;;;17.90;99.90;;;;;;5138978;27;20040;-83
2021/09/02 11:48:02;;;;;;;;;;;17.90;99.90;;;;;;5138465;27;20358;-84
2021/09/02 11:53:13;;;;;;;;;;;17.80;99.90;;;;;;5138885;27;19934;-84
2021/09/02 11:55:44;;;;;;;;;;;17.80;99.90;;;;;;5138649;27;19924;-83
2021/09/02 11:58:15;;;;;;;;;;;17.70;99.90;;;;;;5138710;27;19923;-83
2021/09/02 12:00:43;;;;;;;;;;;17.70;99.90;;;;;;5138631;27;19953;-83
2021/09/02 12:03:13;;;;;;;;;;;17.60;99.90;;;;;;5138653;27;19924;-83
2021/09/02 12:05:46;;;;;;;;;;;17.60;99.90;;;;;;5138510;27;20388;-84
2021/09/02 12:08:17;;;;;;;;;;;17.60;99.90;;;;;;5138575;27;19948;-83
2021/09/02 12:10:46;;;;;;;;;;;17.60;99.90;;;;;;5138387;27;19934;-83
2021/09/02 12:13:26;;;;;;;;;;;17.60;99.90;;;;;;5138418;27;19924;-83
2021/09/02 12:16:06;;;;;;;;;;;17.60;99.90;;;;;;5138634;27;19930;-83
2021/09/02 12:18:36;;;;;;;;;;;17.60;99.90;;;;;;5138313;27;20262;-84
2021/09/02 12:21:07;;;;;;;;;;;17.60;99.90;;;;;;5137724;27;19934;-84
2021/09/02 12:23:42;;;;;;;;;;;17.70;99.90;;;;;;5136708;27;19934;-83
2021/09/02 12:26:08;;;;;;;;;;;17.80;99.90;;;;;;5138461;27;19923;-83
2021/09/02 12:28:46;;;;;;;;;;;17.90;99.90;;;;;;5138179;27;19923;-83
2021/09/02 12:31:30;;;;;;;;;;;18.00;99.90;;;;;;5138178;27;19976;-83
2021/09/02 12:34:01;;;;;;;;;;;18.10;99.90;;;;;;5138007;27;20293;-83
2021/09/02 12:36:30;;;;;;;;;;;18.20;99.90;;;;;;5138083;27;20026;-83
2021/09/02 12:39:13;;;;;;;;;;;18.10;99.90;;;;;;5138030;27;19924;-83
2021/09/02 12:41:42;;;;;;;;;;;18.10;99.90;;;;;;5137703;27;19924;-83
2021/09/02 12:44:13;;;;;;;;;;;18.10;99.90;;;;;;5137642;27;19923;-83
2021/09/02 12:46:48;;;;;;;;;;;18.00;99.90;;;;;;5137713;27;19924;-83
2021/09/02 12:49:16;;;;;;;;;;;18.00;99.90;;;;;;5136637;27;19927;-83
2021/09/02 12:51:45;;;;;;;;;;;18.10;99.90;;;;;;5137726;27;19934;-84
2021/09/02 12:54:12;;;;;;;;;;;18.10;99.90;;;;;;5137443;27;19933;-83
2021/09/02 12:56:43;;;;;;;;;;;18.20;99.90;;;;;;5137500;27;19935;-83
2021/09/02 12:59:12;;;;;;;;;;;18.20;99.90;;;;;;5137534;27;19988;-83
2021/09/02 13:01:42;;;;;;;;;;;18.30;99.90;;;;;;5137431;27;19923;-83
2021/09/02 13:04:10;;;;;;;;;;;18.30;99.90;;;;;;5137177;27;19930;-83
2021/09/02 13:06:38;;;;;;;;;;;18.30;99.90;;;;;;5137344;27;19923;-83
2021/09/02 13:09:06;;;;;;;;;;;18.30;99.90;;;;;;5137076;27;19923;-83
2021/09/02 13:11:35;;;;;;;;;;;18.30;99.90;;;;;;5137304;27;19923;-83
2021/09/02 13:14:03;;;;;;;;;;;18.30;99.90;;;;;;5136193;27;19923;-83
2021/09/02 13:16:34;;;;;;;;;;;18.30;99.90;;;;;;5137314;27;19923;-83
2021/09/02 13:19:02;;;;;;;;;;;18.40;99.90;;;;;;5136986;27;19931;-83
2021/09/02 13:21:33;;;;;;;;;;;18.40;99.90;;;;;;5136971;27;19927;-83
2021/09/02 13:24:01;;;;;;;;;;;18.50;99.90;;;;;;5136946;27;19927;-83
2021/09/02 13:26:29;;;;;;;;;;;18.50;99.90;;;;;;5136932;27;19927;-83
2021/09/02 13:28:57;;;;;;;;;;;18.60;99.90;;;;;;5136749;27;20233;-83
2021/09/02 13:31:25;;;;;;;;;;;18.70;99.90;;;;;;5137042;27;19923;-83
2021/09/02 13:33:54;;;;;;;;;;;18.70;99.90;;;;;;5136481;27;19981;-83
2021/09/02 13:36:23;;;;;;;;;;;18.70;99.90;;;;;;5137059;27;19934;-83
2021/09/02 13:38:51;;;;;;;;;;;18.80;99.90;;;;;;5136680;27;19988;-83
2021/09/02 13:41:18;;;;;;;;;;;18.80;99.90;;;;;;5136899;27;19923;-83
2021/09/02 13:43:44;;;;;;;;;;;18.70;99.90;;;;;;5136843;27;19938;-83
2021/09/02 13:46:11;;;;;;;;;;;18.50;99.90;;;;;;5136640;27;20358;-83
2021/09/02 13:48:38;;;;;;;;;;;18.50;99.90;;;;;;5136236;27;19927;-83
2021/09/02 13:51:10;;;;;;;;;;;18.50;99.90;;;;;;5136455;27;19923;-83
2021/09/02 13:53:36;;;;;;;;;;;18.60;99.90;;;;;;5136459;27;19923;-83
2021/09/02 13:56:03;;;;;;;;;;;18.70;99.90;;;;;;5136400;27;20339;-83
2021/09/02 13:58:30;;;;;;;;;;;18.80;99.90;;;;;;5136605;27;19924;-83
2021/09/02 14:01:00;;;;;;;;;;;18.70;99.90;;;;;;5136582;27;20347;-83
2021/09/02 14:03:27;;;;;;;;;;;18.70;99.90;;;;;;5136595;27;20328;-83
2021/09/02 14:05:54;;;;;;;;;;;18.60;99.90;;;;;;5135775;27;20352;-83
2021/09/02 14:08:22;;;;;;;;;;;18.60;99.90;;;;;;5136150;27;20359;-83
2021/09/02 14:10:49;;;;;;;;;;;18.60;99.90;;;;;;5130069;27;19927;-83
2021/09/02 14:13:16;;;;;;;;;;;18.50;99.90;;;;;;5132181;27;19938;-84
2021/09/02 14:15:43;;;;;;;;;;;18.40;99.90;;;;;;5136109;27;19930;-83
2021/09/02 14:18:10;;;;;;;;;;;18.50;99.90;;;;;;5136003;27;20357;-83
2021/09/02 14:20:37;;;;;;;;;;;18.50;99.90;;;;;;5136103;27;19934;-83
2021/09/02 14:23:03;;;;;;;;;;;18.60;99.90;;;;;;5135962;27;19938;-84
2021/09/02 14:25:32;;;;;;;;;;;18.70;99.90;;;;;;5136122;28;20267;-83
2021/09/02 14:27:59;;;;;;;;;;;18.70;99.90;;;;;;5135926;28;19927;-83